createdAt,value
2023-03-02T00:01:31.070Z,60.63
2023-03-02T00:03:59.402Z,60.57
2023-03-02T00:06:30.943Z,60.59
2023-03-02T00:09:01.257Z,60.75
2023-03-02T00:11:30.071Z,60.91
2023-03-02T00:13:56.563Z,60.99
2023-03-02T00:16:23.599Z,61.01
2023-03-02T00:18:50.229Z,61.11
2023-03-02T00:21:16.754Z,61.28
2023-03-02T00:23:43.226Z,61.36
2023-03-02T00:26:09.718Z,61.33
2023-03-02T00:28:36.391Z,61.48
2023-03-02T00:31:06.648Z,61.54
2023-03-02T00:33:34.038Z,61.80
2023-03-02T00:36:01.094Z,61.91
2023-03-02T00:38:27.619Z,61.90
2023-03-02T00:40:54.655Z,62.11
2023-03-02T00:43:21.142Z,62.15
2023-03-02T00:45:47.623Z,62.41
2023-03-02T00:48:14.169Z,62.47
2023-03-02T00:50:40.631Z,62.37
2023-03-02T00:53:08.593Z,62.51
2023-03-02T00:55:35.705Z,62.53
2023-03-02T00:58:03.009Z,62.66
2023-03-02T01:00:30.165Z,62.69
2023-03-02T01:02:57.298Z,62.86
2023-03-02T01:05:24.420Z,62.92
2023-03-02T01:07:50.902Z,62.89
2023-03-02T01:10:17.457Z,63.19
2023-03-02T01:12:43.986Z,63.12
2023-03-02T01:15:10.716Z,63.40
2023-03-02T01:17:37.181Z,63.55
2023-03-02T01:20:04.171Z,63.57
2023-03-02T01:22:30.628Z,63.83
2023-03-02T01:24:57.118Z,63.81
2023-03-02T01:27:23.596Z,64.36
2023-03-02T01:29:50.080Z,64.38
2023-03-02T01:32:16.627Z,64.48
2023-03-02T01:34:43.134Z,64.75
2023-03-02T01:37:09.618Z,64.75
2023-03-02T01:39:36.112Z,64.92
2023-03-02T01:42:02.660Z,65.21
2023-03-02T01:44:53.025Z,65.04
2023-03-02T01:47:29.991Z,64.95
2023-03-02T01:50:03.277Z,65.10
2023-03-02T01:52:33.383Z,64.96
2023-03-02T01:55:04.083Z,65.12
2023-03-02T01:57:34.565Z,64.94
2023-03-02T02:00:04.937Z,64.97
2023-03-02T02:02:31.406Z,65.10
2023-03-02T02:04:58.242Z,65.17
2023-03-02T02:07:24.705Z,65.13
2023-03-02T02:09:52.300Z,65.26
2023-03-02T02:12:22.069Z,65.44
2023-03-02T02:14:49.879Z,66.00
2023-03-02T02:17:19.044Z,66.19
2023-03-02T02:19:54.384Z,66.41
2023-03-02T02:22:46.705Z,66.73
2023-03-02T02:25:59.283Z,67.11
2023-03-02T02:28:31.693Z,67.57
2023-03-02T02:31:09.064Z,67.58
2023-03-02T02:33:37.758Z,67.64
2023-03-02T02:36:09.831Z,67.64
2023-03-02T02:38:37.872Z,67.78
2023-03-02T02:41:07.923Z,67.72
2023-03-02T02:43:34.499Z,67.78
2023-03-02T02:46:02.253Z,67.75
2023-03-02T02:48:31.755Z,67.58
2023-03-02T02:50:59.653Z,67.54
2023-03-02T02:53:51.000Z,67.42
2023-03-02T02:56:18.594Z,67.30
2023-03-02T02:58:49.120Z,67.31
2023-03-02T03:01:18.442Z,67.32
2023-03-02T03:03:56.865Z,67.06
2023-03-02T03:06:26.652Z,66.92
2023-03-02T03:08:57.388Z,66.99
2023-03-02T03:11:28.238Z,67.13
2023-03-02T03:14:08.168Z,66.96
2023-03-02T03:16:36.043Z,67.02
2023-03-02T03:19:32.977Z,66.97
2023-03-02T03:22:01.824Z,66.94
2023-03-02T03:24:31.299Z,66.76
2023-03-02T03:26:58.462Z,66.63
2023-03-02T03:29:27.232Z,66.87
2023-03-02T03:31:55.880Z,66.85
2023-03-02T03:34:23.724Z,66.89
2023-03-02T03:36:50.955Z,66.78
2023-03-02T03:39:19.413Z,66.77
2023-03-02T03:41:45.998Z,66.68
2023-03-02T03:44:12.759Z,66.69
2023-03-02T03:46:39.409Z,66.85
2023-03-02T03:49:06.034Z,66.74
2023-03-02T03:51:32.937Z,66.70
2023-03-02T03:53:59.419Z,66.77
2023-03-02T03:56:31.277Z,66.86
2023-03-02T03:58:57.872Z,66.87
2023-03-02T04:01:24.358Z,67.05
2023-03-02T04:03:50.872Z,67.00
2023-03-02T04:06:17.354Z,67.06
2023-03-02T04:08:43.832Z,67.19
2023-03-02T04:11:10.282Z,67.06
2023-03-02T04:13:36.731Z,67.08
2023-03-02T04:16:03.479Z,67.15
2023-03-02T04:18:30.014Z,67.16
2023-03-02T04:20:56.468Z,67.21
2023-03-02T04:23:22.958Z,67.13
2023-03-02T04:25:49.413Z,67.11
2023-03-02T04:28:17.443Z,67.11
2023-03-02T04:30:44.167Z,67.09
2023-03-02T04:33:10.794Z,66.97
2023-03-02T04:35:37.317Z,66.98
2023-03-02T04:38:04.014Z,67.03
2023-03-02T04:40:30.536Z,66.93
2023-03-02T04:42:57.091Z,66.92
2023-03-02T04:45:23.594Z,66.95
2023-03-02T04:47:50.096Z,66.94
2023-03-02T04:50:16.624Z,66.90
2023-03-02T04:52:43.220Z,67.01
2023-03-02T04:55:15.742Z,67.07
2023-03-02T04:57:42.209Z,67.33
2023-03-02T05:00:09.530Z,67.53
2023-03-02T05:02:36.113Z,67.46
2023-03-02T05:05:02.758Z,67.49
2023-03-02T05:07:29.282Z,67.42
2023-03-02T05:09:55.754Z,67.48
2023-03-02T05:12:22.258Z,67.37
2023-03-02T05:14:48.812Z,67.23
2023-03-02T05:17:15.546Z,67.24
2023-03-02T05:19:42.021Z,67.43
2023-03-02T05:22:08.538Z,67.57
2023-03-02T05:24:35.042Z,67.89
2023-03-02T05:27:01.533Z,67.86
2023-03-02T05:29:28.016Z,67.81
2023-03-02T05:31:54.636Z,67.91
2023-03-02T05:34:21.198Z,67.85
2023-03-02T05:36:47.700Z,67.70
2023-03-02T05:39:14.168Z,67.72
2023-03-02T05:41:41.193Z,67.80
2023-03-02T05:44:08.110Z,67.82
2023-03-02T05:46:34.944Z,67.86
2023-03-02T05:49:01.626Z,67.88
2023-03-02T05:51:28.214Z,67.85
2023-03-02T05:53:54.680Z,67.75
2023-03-02T05:56:21.271Z,67.63
2023-03-02T05:58:47.785Z,67.39
2023-03-02T06:01:15.512Z,67.33
2023-03-02T06:03:43.037Z,67.11
2023-03-02T06:06:09.550Z,66.94
2023-03-02T06:08:36.040Z,66.64
2023-03-02T06:11:02.496Z,66.25
2023-03-02T06:13:28.988Z,65.76
2023-03-02T06:15:55.456Z,65.51
2023-03-02T06:18:21.951Z,65.42
2023-03-02T06:20:50.013Z,64.93
2023-03-02T06:23:16.529Z,64.49
2023-03-02T06:25:43.017Z,64.00
2023-03-02T06:28:09.514Z,63.67
2023-03-02T06:30:36.220Z,63.16
2023-03-02T06:33:02.729Z,62.49
2023-03-02T06:35:29.309Z,62.20
2023-03-02T06:37:56.203Z,61.63
2023-03-02T06:40:22.847Z,61.22
2023-03-02T06:42:49.395Z,60.17
2023-03-02T06:45:15.893Z,59.80
2023-03-02T06:47:42.410Z,59.06
2023-03-02T06:50:10.048Z,58.38
2023-03-02T06:52:36.645Z,58.07
2023-03-02T06:55:03.910Z,57.49
2023-03-02T06:57:30.377Z,57.00
2023-03-02T06:59:56.842Z,56.32
2023-03-02T07:02:23.363Z,55.92
2023-03-02T07:04:49.897Z,55.83
2023-03-02T07:07:16.441Z,55.17
2023-03-02T07:09:42.906Z,55.35
2023-03-02T07:12:10.651Z,54.75
2023-03-02T07:14:37.181Z,54.23
2023-03-02T07:17:06.723Z,53.94
2023-03-02T07:19:33.224Z,53.64
2023-03-02T07:21:59.754Z,53.16
2023-03-02T07:24:26.376Z,52.73
2023-03-02T07:26:52.874Z,52.66
2023-03-02T07:29:19.336Z,52.43
2023-03-02T07:31:45.807Z,51.49
2023-03-02T07:34:12.325Z,51.47
2023-03-02T07:36:38.774Z,51.36
2023-03-02T07:39:05.288Z,51.13
2023-03-02T07:41:32.046Z,50.27
2023-03-02T07:43:58.687Z,49.72
2023-03-02T07:46:25.242Z,49.65
2023-03-02T07:48:51.730Z,49.89
2023-03-02T07:51:18.204Z,48.82
2023-03-02T07:53:44.746Z,47.93
2023-03-02T07:56:11.700Z,47.83
2023-03-02T07:58:38.531Z,47.51
2023-03-02T08:01:05.477Z,46.93
2023-03-02T08:03:31.976Z,47.42
2023-03-02T08:05:58.567Z,46.39
2023-03-02T08:08:25.250Z,45.66
2023-03-02T08:10:51.793Z,45.98
2023-03-02T08:13:18.302Z,45.61
2023-03-02T08:15:44.808Z,45.11
2023-03-02T08:18:11.323Z,44.64
2023-03-02T08:20:38.187Z,44.23
2023-03-02T08:23:04.713Z,43.52
2023-03-02T08:25:31.187Z,43.51
2023-03-02T08:27:57.687Z,42.81
2023-03-02T08:30:24.187Z,42.26
2023-03-02T08:32:50.821Z,41.99
2023-03-02T08:35:17.334Z,41.35
2023-03-02T08:37:43.826Z,40.86
2023-03-02T08:40:11.322Z,40.49
2023-03-02T08:42:37.985Z,40.15
2023-03-02T08:45:05.030Z,39.12
2023-03-02T08:47:31.498Z,38.78
2023-03-02T08:49:58.060Z,37.86
2023-03-02T08:52:24.585Z,37.19
2023-03-02T08:54:51.078Z,38.07
2023-03-02T08:57:18.620Z,38.52
2023-03-02T08:59:45.861Z,38.02
2023-03-02T09:02:12.369Z,37.36
2023-03-02T09:04:39.043Z,36.38
2023-03-02T09:07:05.669Z,35.93
2023-03-02T09:09:32.192Z,34.68
2023-03-02T09:11:58.655Z,32.10
2023-03-02T09:14:25.107Z,29.47
2023-03-02T09:16:51.715Z,26.33
2023-03-02T09:19:18.459Z,23.88
2023-03-02T09:21:45.314Z,22.11
2023-03-02T09:24:11.823Z,19.40
2023-03-02T09:26:38.310Z,18.18
2023-03-02T09:29:05.400Z,16.81
2023-03-02T09:31:34.357Z,15.74
2023-03-02T09:34:01.007Z,14.14
2023-03-02T09:36:27.859Z,13.10
2023-03-02T09:38:54.679Z,12.36
2023-03-02T09:41:21.219Z,12.44
2023-03-02T09:44:09.295Z,11.96
2023-03-02T09:46:59.996Z,10.76
2023-03-02T09:49:44.665Z,10.46
2023-03-02T09:52:31.856Z,9.64
2023-03-02T09:55:13.888Z,9.55
2023-03-02T09:57:40.893Z,9.06
2023-03-02T10:00:19.005Z,8.27
2023-03-02T10:02:53.919Z,7.99
2023-03-02T10:05:23.323Z,7.79
2023-03-02T10:07:49.736Z,7.66
2023-03-02T10:10:43.849Z,7.43
2023-03-02T10:13:28.617Z,7.25
2023-03-02T10:15:57.959Z,7.07
2023-03-02T10:18:30.498Z,6.81
2023-03-02T10:21:08.952Z,6.49
2023-03-02T10:23:44.151Z,6.29
2023-03-02T10:26:19.182Z,5.91
2023-03-02T10:28:54.391Z,5.89
2023-03-02T10:31:30.399Z,5.72
2023-03-02T10:33:57.133Z,5.72
2023-03-02T10:36:38.949Z,5.53
2023-03-02T10:39:14.156Z,5.01
2023-03-02T10:41:49.896Z,4.94
2023-03-02T10:44:22.870Z,4.60
2023-03-02T10:46:49.435Z,4.86
2023-03-02T10:49:34.084Z,5.08
2023-03-02T10:52:22.943Z,5.97
2023-03-02T10:54:49.685Z,7.00
2023-03-02T10:57:35.477Z,7.85
2023-03-02T11:00:14.365Z,8.99
2023-03-02T11:03:08.258Z,10.35
2023-03-02T11:05:36.231Z,11.38
2023-03-02T11:08:04.798Z,12.08
2023-03-02T11:10:39.912Z,12.01
2023-03-02T11:13:18.295Z,10.75
2023-03-02T11:15:48.927Z,9.97
2023-03-02T11:18:26.204Z,8.92
2023-03-02T11:20:56.855Z,8.43
2023-03-02T11:23:59.957Z,8.01
2023-03-02T11:26:28.668Z,7.44
2023-03-02T11:29:04.483Z,7.01
2023-03-02T11:31:49.851Z,6.57
2023-03-02T11:34:34.500Z,6.20
2023-03-02T11:37:15.900Z,6.19
2023-03-02T11:39:54.917Z,6.11
2023-03-02T11:42:24.209Z,6.09
2023-03-02T11:44:51.136Z,6.15
2023-03-02T11:47:20.388Z,6.32
2023-03-02T11:49:55.096Z,6.44
2023-03-02T11:52:24.547Z,6.76
2023-03-02T11:54:57.786Z,7.32
2023-03-02T11:57:42.870Z,7.91
2023-03-02T12:00:16.045Z,8.96
2023-03-02T12:02:42.539Z,10.31
2023-03-02T12:05:25.206Z,11.04
2023-03-02T12:08:05.914Z,12.37
2023-03-02T12:10:35.230Z,13.62
2023-03-02T12:13:15.931Z,14.58
2023-03-02T12:15:46.735Z,15.71
2023-03-02T12:18:22.050Z,16.80
2023-03-02T12:21:10.452Z,18.23
2023-03-02T12:24:01.365Z,19.66
2023-03-02T12:26:35.469Z,20.51
2023-03-02T12:29:11.579Z,21.17
2023-03-02T12:31:47.290Z,21.77
2023-03-02T12:34:26.879Z,22.35
2023-03-02T12:37:23.629Z,23.03
2023-03-02T12:40:21.989Z,23.65
2023-03-02T12:43:30.266Z,24.64
2023-03-02T12:46:19.719Z,25.58
2023-03-02T12:49:08.999Z,26.37
2023-03-02T12:51:50.561Z,26.82
2023-03-02T12:54:19.883Z,26.87
2023-03-02T12:56:47.262Z,27.09
2023-03-02T12:59:26.236Z,27.39
2023-03-02T13:02:23.187Z,27.61
2023-03-02T13:05:07.140Z,28.62
2023-03-02T13:07:41.026Z,28.50
2023-03-02T13:10:35.946Z,28.64
2023-03-02T13:13:13.865Z,28.53
2023-03-02T13:15:57.430Z,28.59
2023-03-02T13:18:27.273Z,28.54
2023-03-02T13:20:54.200Z,28.27
2023-03-02T13:23:21.120Z,28.05
2023-03-02T13:25:52.651Z,27.84
2023-03-02T13:28:26.842Z,27.69
2023-03-02T13:31:20.898Z,27.80
2023-03-02T13:33:49.397Z,27.84
2023-03-02T13:36:36.920Z,27.93
2023-03-02T13:39:05.889Z,28.29
2023-03-02T13:41:37.131Z,28.30
2023-03-02T13:44:21.426Z,28.98
2023-03-02T13:46:48.269Z,29.64
2023-03-02T13:49:30.094Z,29.68
2023-03-02T13:52:28.974Z,30.05
2023-03-02T13:54:55.495Z,30.40
2023-03-02T13:57:30.586Z,30.76
2023-03-02T13:59:59.230Z,30.82
2023-03-02T14:02:27.984Z,31.11
2023-03-02T14:04:55.489Z,31.18
2023-03-02T14:07:22.297Z,31.50
2023-03-02T14:09:49.649Z,31.44
2023-03-02T14:12:24.076Z,31.55
2023-03-02T14:14:52.798Z,31.31
2023-03-02T14:17:23.810Z,31.05
2023-03-02T14:19:50.489Z,30.89
2023-03-02T14:22:16.963Z,30.84
2023-03-02T14:24:43.438Z,30.73
2023-03-02T14:27:10.611Z,30.58
2023-03-02T14:29:37.101Z,30.53
2023-03-02T14:32:04.347Z,30.45
2023-03-02T14:34:30.899Z,30.76
2023-03-02T14:37:02.815Z,30.88
2023-03-02T14:39:38.174Z,30.58
2023-03-02T14:42:06.342Z,30.44
2023-03-02T14:44:33.078Z,29.96
2023-03-02T14:46:59.617Z,29.72
2023-03-02T14:49:26.175Z,29.11
2023-03-02T14:52:15.046Z,28.63
2023-03-02T14:54:46.378Z,27.92
2023-03-02T14:57:20.714Z,27.63
2023-03-02T14:59:48.248Z,27.41
2023-03-02T15:02:24.793Z,27.29
2023-03-02T15:04:52.984Z,26.79
2023-03-02T15:07:21.631Z,26.39
2023-03-02T15:09:48.158Z,26.60
2023-03-02T15:12:14.689Z,26.43
2023-03-02T15:14:41.222Z,26.13
2023-03-02T15:17:07.731Z,25.62
2023-03-02T15:19:34.234Z,25.26
2023-03-02T15:22:03.810Z,25.13
2023-03-02T15:24:33.069Z,24.59
2023-03-02T15:26:59.932Z,24.32
2023-03-02T15:29:26.433Z,24.19
2023-03-02T15:31:53.244Z,23.85
2023-03-02T15:34:20.025Z,24.12
2023-03-02T15:36:46.497Z,24.79
2023-03-02T15:39:13.922Z,25.84
2023-03-02T15:41:40.895Z,27.05
2023-03-02T15:44:07.921Z,28.19
2023-03-02T15:46:34.394Z,29.29
2023-03-02T15:49:00.873Z,30.12
2023-03-02T15:51:27.344Z,30.92
2023-03-02T15:53:53.818Z,31.84
2023-03-02T15:56:20.277Z,32.47
2023-03-02T15:58:48.374Z,33.11
2023-03-02T16:01:15.977Z,33.65
2023-03-02T16:03:43.797Z,34.21
2023-03-02T16:06:10.539Z,34.75
2023-03-02T16:08:37.506Z,35.22
2023-03-02T16:11:06.539Z,35.66
2023-03-02T16:13:33.804Z,36.26
2023-03-02T16:16:05.234Z,36.74
2023-03-02T16:18:32.410Z,37.28
2023-03-02T16:20:59.213Z,37.53
2023-03-02T16:23:25.735Z,37.76
2023-03-02T16:25:52.219Z,38.15
2023-03-02T16:28:21.098Z,38.56
2023-03-02T16:30:47.718Z,39.00
2023-03-02T16:33:18.091Z,39.30
2023-03-02T16:35:44.851Z,39.55
2023-03-02T16:38:11.520Z,39.89
2023-03-02T16:40:39.377Z,40.05
2023-03-02T16:43:07.479Z,40.57
2023-03-02T16:45:34.023Z,41.68
2023-03-02T16:48:00.525Z,42.05
2023-03-02T16:50:27.353Z,42.77
2023-03-02T16:52:53.873Z,43.40
2023-03-02T16:55:20.560Z,43.84
2023-03-02T16:57:47.026Z,44.27
2023-03-02T17:00:16.737Z,44.49
2023-03-02T17:02:44.305Z,44.85
2023-03-02T17:05:13.176Z,45.35
2023-03-02T17:07:39.695Z,45.67
2023-03-02T17:10:08.508Z,45.81
2023-03-02T17:12:35.010Z,46.24
2023-03-02T17:15:01.588Z,46.35
2023-03-02T17:17:28.149Z,46.67
2023-03-02T17:19:54.622Z,46.79
2023-03-02T17:22:21.132Z,46.90
2023-03-02T17:24:47.662Z,47.12
2023-03-02T17:27:24.613Z,47.43
2023-03-02T17:29:52.265Z,47.79
2023-03-02T17:32:19.055Z,47.77
2023-03-02T17:34:46.266Z,47.96
2023-03-02T17:37:13.234Z,48.06
2023-03-02T17:39:39.957Z,48.34
2023-03-02T17:42:06.860Z,48.45
2023-03-02T17:44:38.193Z,48.57
2023-03-02T17:47:04.708Z,48.86
2023-03-02T17:49:31.286Z,49.03
2023-03-02T17:51:57.916Z,49.22
2023-03-02T17:54:24.419Z,49.37
2023-03-02T17:56:50.983Z,49.54
2023-03-02T17:59:17.490Z,49.72
2023-03-02T18:01:44.063Z,49.84
2023-03-02T18:04:10.652Z,50.01
2023-03-02T18:06:37.157Z,50.11
2023-03-02T18:09:03.916Z,50.39
2023-03-02T18:11:30.569Z,50.63
2023-03-02T18:13:58.024Z,50.80
2023-03-02T18:16:26.095Z,50.93
2023-03-02T18:18:54.056Z,51.15
2023-03-02T18:21:21.320Z,51.31
2023-03-02T18:23:47.836Z,51.39
2023-03-02T18:26:15.463Z,51.69
2023-03-02T18:28:42.396Z,51.88
2023-03-02T18:31:09.594Z,52.09
2023-03-02T18:33:36.688Z,52.19
2023-03-02T18:36:03.411Z,52.41
2023-03-02T18:38:29.879Z,52.53
2023-03-02T18:40:58.146Z,52.77
2023-03-02T18:43:24.740Z,53.01
2023-03-02T18:45:51.234Z,53.06
2023-03-02T18:48:17.708Z,53.05
2023-03-02T18:50:44.462Z,53.23
2023-03-02T18:53:12.873Z,53.39
2023-03-02T18:55:39.588Z,53.62
2023-03-02T18:58:07.333Z,53.87
2023-03-02T19:00:33.954Z,54.15
2023-03-02T19:03:01.099Z,54.53
2023-03-02T19:05:27.601Z,54.78
2023-03-02T19:07:54.106Z,54.75
2023-03-02T19:10:21.607Z,55.03
2023-03-02T19:12:48.169Z,55.15
2023-03-02T19:15:14.729Z,55.33
2023-03-02T19:17:43.111Z,55.53
2023-03-02T19:20:16.868Z,55.60
2023-03-02T19:22:43.469Z,55.99
2023-03-02T19:25:10.635Z,56.34
2023-03-02T19:27:37.786Z,56.58
2023-03-02T19:30:07.516Z,56.83
2023-03-02T19:32:34.192Z,57.25
2023-03-02T19:35:02.539Z,57.55
2023-03-02T19:37:29.109Z,57.59
2023-03-02T19:39:55.656Z,57.84
2023-03-02T19:42:22.151Z,58.04
2023-03-02T19:44:48.818Z,58.39
2023-03-02T19:47:16.060Z,58.47
2023-03-02T19:49:42.626Z,58.94
2023-03-02T19:52:09.121Z,59.04
2023-03-02T19:54:35.609Z,59.30
2023-03-02T19:57:02.067Z,59.56
2023-03-02T19:59:28.634Z,59.62
2023-03-02T20:01:55.270Z,59.87
2023-03-02T20:04:22.134Z,60.19
2023-03-02T20:06:48.633Z,60.45
2023-03-02T20:09:15.125Z,60.47
2023-03-02T20:11:41.598Z,60.62
2023-03-02T20:14:08.127Z,60.86
2023-03-02T20:16:35.562Z,60.75
2023-03-02T20:19:03.319Z,61.02
2023-03-02T20:21:31.431Z,61.08
2023-03-02T20:23:57.964Z,60.85
2023-03-02T20:26:25.085Z,60.84
2023-03-02T20:28:54.482Z,60.70
2023-03-02T20:31:22.804Z,60.79
2023-03-02T20:33:51.821Z,60.76
2023-03-02T20:36:25.420Z,60.71
2023-03-02T20:38:57.840Z,60.84
2023-03-02T20:41:24.682Z,61.07
2023-03-02T20:43:51.170Z,61.11
2023-03-02T20:46:23.928Z,61.26
2023-03-02T20:48:51.088Z,61.24
2023-03-02T20:51:19.093Z,61.38
2023-03-02T20:53:46.152Z,61.36
2023-03-02T20:56:14.258Z,61.38
2023-03-02T20:58:41.539Z,61.54
2023-03-02T21:01:08.241Z,61.62
2023-03-02T21:03:34.791Z,61.91
2023-03-02T21:06:02.085Z,62.06
2023-03-02T21:08:29.352Z,62.19
2023-03-02T21:10:55.812Z,62.27
2023-03-02T21:13:22.368Z,62.17
2023-03-02T21:15:49.388Z,62.25
2023-03-02T21:18:15.893Z,62.28
2023-03-02T21:20:43.103Z,62.12
2023-03-02T21:23:09.594Z,62.16
2023-03-02T21:25:36.153Z,62.27
2023-03-02T21:28:03.123Z,62.29
2023-03-02T21:30:32.411Z,62.40
2023-03-02T21:32:58.906Z,62.36
2023-03-02T21:35:25.820Z,62.43
2023-03-02T21:37:56.853Z,62.57
2023-03-02T21:40:31.932Z,62.60
2023-03-02T21:42:58.915Z,62.66
2023-03-02T21:45:25.370Z,62.81
2023-03-02T21:47:51.881Z,62.87
2023-03-02T21:50:28.838Z,62.74
2023-03-02T21:52:56.208Z,62.84
2023-03-02T21:55:22.699Z,63.07
2023-03-02T21:57:49.211Z,63.06
2023-03-02T22:00:30.833Z,63.19
2023-03-02T22:02:57.941Z,63.33
2023-03-02T22:05:24.813Z,63.36
2023-03-02T22:07:51.622Z,63.44
2023-03-02T22:10:26.630Z,63.50
2023-03-02T22:13:13.442Z,63.60
2023-03-02T22:15:39.958Z,63.78
2023-03-02T22:18:11.780Z,63.91
2023-03-02T22:20:41.329Z,63.94
2023-03-02T22:23:16.781Z,64.13
2023-03-02T22:25:44.174Z,64.17
2023-03-02T22:28:18.535Z,64.32
2023-03-02T22:30:45.271Z,64.41
2023-03-02T22:33:18.609Z,64.44
2023-03-02T22:35:46.312Z,64.47
2023-03-02T22:38:18.199Z,64.37
2023-03-02T22:40:44.768Z,64.46
2023-03-02T22:43:11.189Z,64.49
2023-03-02T22:45:39.778Z,64.58
2023-03-02T22:48:20.872Z,64.70
2023-03-02T22:50:49.754Z,64.62
2023-03-02T22:53:26.456Z,64.75
2023-03-02T22:55:58.603Z,64.73
2023-03-02T22:58:27.958Z,64.71
2023-03-02T23:00:54.774Z,64.63
2023-03-02T23:03:43.280Z,64.74
2023-03-02T23:06:31.480Z,64.80
2023-03-02T23:09:00.712Z,64.63
2023-03-02T23:11:28.284Z,64.82
2023-03-02T23:13:55.223Z,64.67
2023-03-02T23:16:25.099Z,64.62
2023-03-02T23:18:54.967Z,64.61
2023-03-02T23:21:27.857Z,64.67
2023-03-02T23:23:54.761Z,64.80
2023-03-02T23:26:21.641Z,64.73
2023-03-02T23:28:50.115Z,64.89
2023-03-02T23:31:17.524Z,64.88
2023-03-02T23:33:44.455Z,64.96
2023-03-02T23:36:11.341Z,65.07
2023-03-02T23:38:37.799Z,65.12
2023-03-02T23:41:04.591Z,65.19
2023-03-02T23:43:31.049Z,65.17
2023-03-02T23:45:57.531Z,65.29
2023-03-02T23:48:24.185Z,65.34
2023-03-02T23:50:50.645Z,65.48
2023-03-02T23:53:17.163Z,65.68
2023-03-02T23:55:49.886Z,65.71
2023-03-02T23:58:16.919Z,65.66
